createdAt,value
2023-01-17T21:52:21.885Z,0.70
2023-01-17T21:55:24.115Z,0.70
2023-01-17T21:58:09.802Z,0.70
2023-01-17T22:00:36.578Z,0.70
2023-01-17T22:03:03.408Z,0.70
2023-01-17T22:05:30.092Z,0.70
2023-01-17T22:08:17.817Z,0.60
2023-01-17T22:10:44.696Z,0.60
2023-01-17T22:13:16.387Z,0.60
2023-01-17T22:15:44.013Z,0.70
2023-01-17T22:18:11.691Z,0.60
2023-01-17T22:20:42.351Z,0.60
2023-01-17T22:23:12.119Z,0.70
2023-01-17T22:25:38.824Z,0.60
2023-01-17T22:28:05.531Z,0.60
2023-01-17T22:30:32.321Z,0.60
2023-01-17T22:32:59.267Z,0.50
2023-01-17T22:35:26.273Z,0.50
2023-01-17T22:37:54.138Z,0.50
2023-01-17T22:40:21.738Z,0.40
2023-01-17T22:42:48.577Z,0.50
2023-01-17T22:45:17.297Z,0.50
2023-01-17T22:47:44.583Z,0.50
2023-01-17T22:50:12.419Z,0.40
2023-01-17T22:52:41.506Z,0.40
2023-01-17T22:55:08.672Z,0.40
2023-01-17T22:57:35.607Z,0.40
2023-01-17T23:00:02.642Z,0.40
2023-01-17T23:02:29.698Z,0.30
2023-01-17T23:04:56.605Z,0.20
2023-01-17T23:07:26.636Z,0.10
2023-01-17T23:09:53.756Z,0.10
2023-01-17T23:12:20.768Z,0.00
2023-01-17T23:15:08.821Z,0.00
2023-01-17T23:17:54.256Z,0.00
2023-01-17T23:20:24.390Z,-0.10
2023-01-17T23:23:00.515Z,-0.10
2023-01-17T23:25:27.615Z,-0.20
2023-01-17T23:28:20.842Z,-0.20
2023-01-17T23:30:53.659Z,-0.20
2023-01-17T23:33:38.884Z,-0.30
2023-01-17T23:36:20.179Z,-0.30
2023-01-17T23:38:53.164Z,-0.30
2023-01-17T23:44:41.788Z,-0.40
2023-01-17T23:47:20.569Z,-0.50
2023-01-17T23:49:50.686Z,-0.50
2023-01-17T23:52:22.412Z,-0.50
2023-01-17T23:55:21.110Z,-0.50
2023-01-17T23:57:49.955Z,-0.50
